sensor_id;sensor_type;location;lat;lon;timestamp;P1;durP1;ratioP1;P2;durP2;ratioP2
42226;SDS011;27892;52.378;13.122;2022-08-01T00:00:32;2.10;;;2.00;;
42226;SDS011;27892;52.378;13.122;2022-08-01T00:02:58;3.08;;;2.22;;
42226;SDS011;27892;52.378;13.122;2022-08-01T00:05:24;2.67;;;2.25;;
42226;SDS011;27892;52.378;13.122;2022-08-01T00:07:49;2.40;;;2.30;;
42226;SDS011;27892;52.378;13.122;2022-08-01T00:10:15;2.15;;;1.95;;
42226;SDS011;27892;52.378;13.122;2022-08-01T00:12:42;2.38;;;2.28;;
42226;SDS011;27892;52.378;13.122;2022-08-01T00:15:09;2.30;;;2.20;;
42226;SDS011;27892;52.378;13.122;2022-08-01T00:17:36;2.03;;;1.92;;
42226;SDS011;27892;52.378;13.122;2022-08-01T00:20:04;2.38;;;2.10;;
42226;SDS011;27892;52.378;13.122;2022-08-01T00:22:33;2.05;;;1.95;;
42226;SDS011;27892;52.378;13.122;2022-08-01T00:24:59;1.95;;;1.85;;
42226;SDS011;27892;52.378;13.122;2022-08-01T00:27:25;1.80;;;1.70;;
42226;SDS011;27892;52.378;13.122;2022-08-01T00:29:51;2.00;;;1.90;;
42226;SDS011;27892;52.378;13.122;2022-08-01T00:32:16;2.03;;;1.92;;
42226;SDS011;27892;52.378;13.122;2022-08-01T00:34:42;2.33;;;1.98;;
42226;SDS011;27892;52.378;13.122;2022-08-01T00:37:07;2.08;;;1.98;;
42226;SDS011;27892;52.378;13.122;2022-08-01T00:39:33;2.15;;;2.00;;
42226;SDS011;27892;52.378;13.122;2022-08-01T00:41:59;2.28;;;2.17;;
42226;SDS011;27892;52.378;13.122;2022-08-01T00:44:30;2.00;;;1.90;;
42226;SDS011;27892;52.378;13.122;2022-08-01T00:46:55;2.35;;;2.25;;
42226;SDS011;27892;52.378;13.122;2022-08-01T00:49:21;2.55;;;2.17;;
42226;SDS011;27892;52.378;13.122;2022-08-01T00:51:47;2.67;;;2.38;;
42226;SDS011;27892;52.378;13.122;2022-08-01T00:54:13;3.10;;;2.58;;
42226;SDS011;27892;52.378;13.122;2022-08-01T00:56:39;2.35;;;2.25;;
42226;SDS011;27892;52.378;13.122;2022-08-01T00:59:06;2.47;;;2.25;;
42226;SDS011;27892;52.378;13.122;2022-08-01T01:01:32;2.28;;;2.17;;
42226;SDS011;27892;52.378;13.122;2022-08-01T01:03:58;2.58;;;2.42;;
42226;SDS011;27892;52.378;13.122;2022-08-01T01:11:29;2.35;;;2.25;;
42226;SDS011;27892;52.378;13.122;2022-08-01T01:14:04;2.60;;;2.40;;
42226;SDS011;27892;52.378;13.122;2022-08-01T01:16:34;2.17;;;2.08;;
42226;SDS011;27892;52.378;13.122;2022-08-01T01:19:04;2.65;;;2.45;;
42226;SDS011;27892;52.378;13.122;2022-08-01T01:29:38;2.85;;;2.58;;
42226;SDS011;27892;52.378;13.122;2022-08-01T01:32:10;2.55;;;2.35;;
42226;SDS011;27892;52.378;13.122;2022-08-01T01:34:43;2.53;;;2.42;;
42226;SDS011;27892;52.378;13.122;2022-08-01T01:37:12;2.50;;;2.30;;
42226;SDS011;27892;52.378;13.122;2022-08-01T01:39:40;2.60;;;2.40;;
42226;SDS011;27892;52.378;13.122;2022-08-01T01:42:07;2.10;;;2.00;;
42226;SDS011;27892;52.378;13.122;2022-08-01T01:44:35;1.85;;;1.75;;
42226;SDS011;27892;52.378;13.122;2022-08-01T01:47:02;1.58;;;1.58;;
42226;SDS011;27892;52.378;13.122;2022-08-01T01:49:29;1.85;;;1.75;;
42226;SDS011;27892;52.378;13.122;2022-08-01T01:51:57;1.85;;;1.75;;
42226;SDS011;27892;52.378;13.122;2022-08-01T01:54:24;1.98;;;1.88;;
42226;SDS011;27892;52.378;13.122;2022-08-01T01:56:58;1.75;;;1.70;;
42226;SDS011;27892;52.378;13.122;2022-08-01T01:59:26;1.80;;;1.70;;
42226;SDS011;27892;52.378;13.122;2022-08-01T02:01:55;2.10;;;2.00;;
42226;SDS011;27892;52.378;13.122;2022-08-01T02:04:24;2.10;;;2.00;;
42226;SDS011;27892;52.378;13.122;2022-08-01T02:06:52;1.88;;;1.77;;
42226;SDS011;27892;52.378;13.122;2022-08-01T02:09:19;1.80;;;1.70;;
42226;SDS011;27892;52.378;13.122;2022-08-01T02:11:46;1.50;;;1.50;;
42226;SDS011;27892;52.378;13.122;2022-08-01T02:14:13;1.50;;;1.50;;
42226;SDS011;27892;52.378;13.122;2022-08-01T02:16:41;1.40;;;1.40;;
42226;SDS011;27892;52.378;13.122;2022-08-01T02:19:09;1.83;;;1.73;;
42226;SDS011;27892;52.378;13.122;2022-08-01T02:21:37;1.70;;;1.60;;
42226;SDS011;27892;52.378;13.122;2022-08-01T02:24:13;1.63;;;1.63;;
42226;SDS011;27892;52.378;13.122;2022-08-01T02:26:42;1.30;;;1.30;;
42226;SDS011;27892;52.378;13.122;2022-08-01T02:29:13;1.40;;;1.40;;
42226;SDS011;27892;52.378;13.122;2022-08-01T02:31:44;1.60;;;1.50;;
42226;SDS011;27892;52.378;13.122;2022-08-01T02:34:13;1.40;;;1.40;;
42226;SDS011;27892;52.378;13.122;2022-08-01T02:36:42;1.40;;;1.40;;
42226;SDS011;27892;52.378;13.122;2022-08-01T02:39:11;1.40;;;1.40;;
42226;SDS011;27892;52.378;13.122;2022-08-01T02:41:42;2.05;;;1.95;;
42226;SDS011;27892;52.378;13.122;2022-08-01T02:44:14;1.80;;;1.70;;
42226;SDS011;27892;52.378;13.122;2022-08-01T02:46:50;2.00;;;1.90;;
42226;SDS011;27892;52.378;13.122;2022-08-01T02:49:19;2.10;;;1.90;;
42226;SDS011;27892;52.378;13.122;2022-08-01T02:51:46;2.05;;;1.95;;
42226;SDS011;27892;52.378;13.122;2022-08-01T02:54:32;2.00;;;1.90;;
42226;SDS011;27892;52.378;13.122;2022-08-01T02:57:17;2.10;;;2.00;;
42226;SDS011;27892;52.378;13.122;2022-08-01T03:00:04;1.98;;;1.88;;
42226;SDS011;27892;52.378;13.122;2022-08-01T03:02:50;2.55;;;2.35;;
42226;SDS011;27892;52.378;13.122;2022-08-01T03:05:38;2.00;;;1.90;;
42226;SDS011;27892;52.378;13.122;2022-08-01T03:08:23;1.90;;;1.80;;
42226;SDS011;27892;52.378;13.122;2022-08-01T03:11:08;3.00;;;2.78;;
42226;SDS011;27892;52.378;13.122;2022-08-01T03:13:37;2.25;;;2.15;;
42226;SDS011;27892;52.378;13.122;2022-08-01T03:16:03;2.22;;;2.13;;
42226;SDS011;27892;52.378;13.122;2022-08-01T03:18:31;3.05;;;2.00;;
42226;SDS011;27892;52.378;13.122;2022-08-01T03:20:58;1.80;;;1.70;;
42226;SDS011;27892;52.378;13.122;2022-08-01T03:23:26;2.03;;;1.90;;
42226;SDS011;27892;52.378;13.122;2022-08-01T03:25:54;2.60;;;2.40;;
42226;SDS011;27892;52.378;13.122;2022-08-01T03:28:21;2.92;;;2.60;;
42226;SDS011;27892;52.378;13.122;2022-08-01T03:30:47;2.90;;;2.70;;
42226;SDS011;27892;52.378;13.122;2022-08-01T03:33:14;3.60;;;3.30;;
42226;SDS011;27892;52.378;13.122;2022-08-01T03:35:42;3.50;;;3.20;;
42226;SDS011;27892;52.378;13.122;2022-08-01T03:38:13;2.45;;;2.35;;
42226;SDS011;27892;52.378;13.122;2022-08-01T03:40:45;2.33;;;2.22;;
42226;SDS011;27892;52.378;13.122;2022-08-01T03:43:16;2.30;;;2.20;;
42226;SDS011;27892;52.378;13.122;2022-08-01T03:45:58;2.10;;;2.00;;
42226;SDS011;27892;52.378;13.122;2022-08-01T03:48:29;2.72;;;2.53;;
42226;SDS011;27892;52.378;13.122;2022-08-01T03:50:59;2.47;;;2.28;;
42226;SDS011;27892;52.378;13.122;2022-08-01T03:53:26;2.22;;;2.13;;
42226;SDS011;27892;52.378;13.122;2022-08-01T03:55:56;2.00;;;1.90;;
42226;SDS011;27892;52.378;13.122;2022-08-01T03:58:23;2.00;;;1.90;;
42226;SDS011;27892;52.378;13.122;2022-08-01T04:00:49;2.35;;;2.22;;
42226;SDS011;27892;52.378;13.122;2022-08-01T04:03:15;3.10;;;2.90;;
42226;SDS011;27892;52.378;13.122;2022-08-01T04:05:42;2.30;;;2.20;;
42226;SDS011;27892;52.378;13.122;2022-08-01T04:08:08;2.72;;;2.53;;
42226;SDS011;27892;52.378;13.122;2022-08-01T04:10:34;2.70;;;2.50;;
42226;SDS011;27892;52.378;13.122;2022-08-01T04:13:01;2.47;;;2.33;;
42226;SDS011;27892;52.378;13.122;2022-08-01T04:15:27;2.97;;;2.78;;
42226;SDS011;27892;52.378;13.122;2022-08-01T04:17:53;2.92;;;2.72;;
42226;SDS011;27892;52.378;13.122;2022-08-01T04:20:19;2.80;;;2.60;;
42226;SDS011;27892;52.378;13.122;2022-08-01T04:22:45;2.90;;;2.70;;
42226;SDS011;27892;52.378;13.122;2022-08-01T04:25:12;2.83;;;2.63;;
42226;SDS011;27892;52.378;13.122;2022-08-01T04:27:45;2.63;;;2.53;;
42226;SDS011;27892;52.378;13.122;2022-08-01T04:30:14;2.40;;;2.30;;
42226;SDS011;27892;52.378;13.122;2022-08-01T04:32:42;3.22;;;3.03;;
42226;SDS011;27892;52.378;13.122;2022-08-01T04:35:11;3.60;;;3.30;;
42226;SDS011;27892;52.378;13.122;2022-08-01T04:37:41;3.17;;;2.80;;
42226;SDS011;27892;52.378;13.122;2022-08-01T04:40:09;3.38;;;3.08;;
42226;SDS011;27892;52.378;13.122;2022-08-01T04:42:37;2.67;;;2.47;;
42226;SDS011;27892;52.378;13.122;2022-08-01T04:45:03;2.30;;;2.20;;
42226;SDS011;27892;52.378;13.122;2022-08-01T04:47:29;2.80;;;2.60;;
42226;SDS011;27892;52.378;13.122;2022-08-01T04:49:55;2.95;;;2.72;;
42226;SDS011;27892;52.378;13.122;2022-08-01T04:52:21;3.35;;;3.05;;
42226;SDS011;27892;52.378;13.122;2022-08-01T04:54:47;4.72;;;2.90;;
42226;SDS011;27892;52.378;13.122;2022-08-01T04:57:13;2.80;;;2.60;;
42226;SDS011;27892;52.378;13.122;2022-08-01T04:59:41;3.30;;;3.00;;
42226;SDS011;27892;52.378;13.122;2022-08-01T05:02:09;2.88;;;2.67;;
42226;SDS011;27892;52.378;13.122;2022-08-01T05:04:35;3.08;;;2.72;;
42226;SDS011;27892;52.378;13.122;2022-08-01T05:07:03;3.20;;;2.90;;
42226;SDS011;27892;52.378;13.122;2022-08-01T05:09:29;2.40;;;2.30;;
42226;SDS011;27892;52.378;13.122;2022-08-01T05:11:56;2.78;;;2.60;;
42226;SDS011;27892;52.378;13.122;2022-08-01T05:14:24;2.55;;;2.35;;
42226;SDS011;27892;52.378;13.122;2022-08-01T05:16:50;2.22;;;2.10;;
42226;SDS011;27892;52.378;13.122;2022-08-01T05:19:16;2.40;;;2.30;;
42226;SDS011;27892;52.378;13.122;2022-08-01T05:21:42;3.40;;;3.10;;
42226;SDS011;27892;52.378;13.122;2022-08-01T05:24:08;3.13;;;2.92;;
42226;SDS011;27892;52.378;13.122;2022-08-01T05:26:33;3.00;;;2.80;;
42226;SDS011;27892;52.378;13.122;2022-08-01T05:28:59;2.70;;;2.50;;
42226;SDS011;27892;52.378;13.122;2022-08-01T05:31:25;3.08;;;2.88;;
42226;SDS011;27892;52.378;13.122;2022-08-01T05:33:50;2.90;;;2.65;;
42226;SDS011;27892;52.378;13.122;2022-08-01T05:36:16;2.50;;;2.40;;
42226;SDS011;27892;52.378;13.122;2022-08-01T05:38:42;2.75;;;2.55;;
42226;SDS011;27892;52.378;13.122;2022-08-01T05:41:07;2.30;;;2.20;;
42226;SDS011;27892;52.378;13.122;2022-08-01T05:43:33;2.72;;;2.53;;
42226;SDS011;27892;52.378;13.122;2022-08-01T05:45:59;2.42;;;2.22;;
42226;SDS011;27892;52.378;13.122;2022-08-01T05:48:25;2.10;;;2.00;;
42226;SDS011;27892;52.378;13.122;2022-08-01T05:50:51;2.35;;;2.03;;
42226;SDS011;27892;52.378;13.122;2022-08-01T05:53:18;1.88;;;1.77;;
42226;SDS011;27892;52.378;13.122;2022-08-01T05:55:43;2.58;;;2.30;;
42226;SDS011;27892;52.378;13.122;2022-08-01T05:58:09;1.90;;;1.80;;
42226;SDS011;27892;52.378;13.122;2022-08-01T06:00:34;1.88;;;1.77;;
42226;SDS011;27892;52.378;13.122;2022-08-01T06:03:00;2.03;;;1.92;;
42226;SDS011;27892;52.378;13.122;2022-08-01T06:05:26;2.10;;;2.00;;
42226;SDS011;27892;52.378;13.122;2022-08-01T06:07:51;2.40;;;2.20;;
42226;SDS011;27892;52.378;13.122;2022-08-01T06:10:17;2.30;;;2.20;;
42226;SDS011;27892;52.378;13.122;2022-08-01T06:12:43;2.10;;;2.00;;
42226;SDS011;27892;52.378;13.122;2022-08-01T06:15:08;2.15;;;2.05;;
42226;SDS011;27892;52.378;13.122;2022-08-01T06:17:34;1.90;;;1.80;;
42226;SDS011;27892;52.378;13.122;2022-08-01T06:20:00;2.30;;;2.20;;
42226;SDS011;27892;52.378;13.122;2022-08-01T06:22:26;1.90;;;1.80;;
42226;SDS011;27892;52.378;13.122;2022-08-01T06:24:51;1.92;;;1.83;;
42226;SDS011;27892;52.378;13.122;2022-08-01T06:27:17;2.15;;;2.05;;
42226;SDS011;27892;52.378;13.122;2022-08-01T06:29:44;2.40;;;2.30;;
42226;SDS011;27892;52.378;13.122;2022-08-01T06:32:09;2.35;;;2.20;;
42226;SDS011;27892;52.378;13.122;2022-08-01T06:34:35;2.38;;;2.28;;
42226;SDS011;27892;52.378;13.122;2022-08-01T06:37:01;2.20;;;2.05;;
42226;SDS011;27892;52.378;13.122;2022-08-01T06:39:26;2.92;;;2.28;;
42226;SDS011;27892;52.378;13.122;2022-08-01T06:41:52;4.28;;;2.67;;
42226;SDS011;27892;52.378;13.122;2022-08-01T06:44:18;2.38;;;2.20;;
42226;SDS011;27892;52.378;13.122;2022-08-01T06:46:43;2.70;;;2.50;;
42226;SDS011;27892;52.378;13.122;2022-08-01T06:49:09;2.00;;;1.90;;
42226;SDS011;27892;52.378;13.122;2022-08-01T06:51:35;4.25;;;3.85;;
42226;SDS011;27892;52.378;13.122;2022-08-01T06:54:00;4.53;;;4.10;;
42226;SDS011;27892;52.378;13.122;2022-08-01T06:56:26;3.05;;;2.80;;
42226;SDS011;27892;52.378;13.122;2022-08-01T06:58:52;2.58;;;2.38;;
42226;SDS011;27892;52.378;13.122;2022-08-01T07:01:18;2.30;;;2.20;;
42226;SDS011;27892;52.378;13.122;2022-08-01T07:03:43;2.47;;;2.30;;
42226;SDS011;27892;52.378;13.122;2022-08-01T07:06:09;2.38;;;2.20;;
42226;SDS011;27892;52.378;13.122;2022-08-01T07:08:35;2.45;;;2.28;;
42226;SDS011;27892;52.378;13.122;2022-08-01T07:11:01;2.00;;;1.90;;
42226;SDS011;27892;52.378;13.122;2022-08-01T07:13:28;2.67;;;2.47;;
42226;SDS011;27892;52.378;13.122;2022-08-01T07:15:55;2.70;;;2.50;;
42226;SDS011;27892;52.378;13.122;2022-08-01T07:18:21;2.40;;;2.20;;
42226;SDS011;27892;52.378;13.122;2022-08-01T07:20:48;2.47;;;2.28;;
42226;SDS011;27892;52.378;13.122;2022-08-01T07:23:14;2.47;;;2.38;;
42226;SDS011;27892;52.378;13.122;2022-08-01T07:25:41;2.60;;;2.40;;
42226;SDS011;27892;52.378;13.122;2022-08-01T07:28:06;2.30;;;2.20;;
42226;SDS011;27892;52.378;13.122;2022-08-01T07:30:32;2.50;;;2.38;;
42226;SDS011;27892;52.378;13.122;2022-08-01T07:33:01;2.10;;;2.00;;
42226;SDS011;27892;52.378;13.122;2022-08-01T07:35:27;2.42;;;2.33;;
42226;SDS011;27892;52.378;13.122;2022-08-01T07:37:53;2.50;;;2.40;;
42226;SDS011;27892;52.378;13.122;2022-08-01T07:40:19;2.80;;;2.60;;
42226;SDS011;27892;52.378;13.122;2022-08-01T07:42:45;3.00;;;2.80;;
42226;SDS011;27892;52.378;13.122;2022-08-01T07:45:11;4.05;;;3.75;;
42226;SDS011;27892;52.378;13.122;2022-08-01T07:47:37;3.33;;;3.10;;
42226;SDS011;27892;52.378;13.122;2022-08-01T07:50:04;4.35;;;3.92;;
42226;SDS011;27892;52.378;13.122;2022-08-01T07:52:30;3.83;;;3.53;;
42226;SDS011;27892;52.378;13.122;2022-08-01T07:54:56;4.20;;;3.80;;
42226;SDS011;27892;52.378;13.122;2022-08-01T07:57:23;4.72;;;4.32;;
42226;SDS011;27892;52.378;13.122;2022-08-01T07:59:49;4.60;;;4.20;;
42226;SDS011;27892;52.378;13.122;2022-08-01T08:02:15;4.80;;;4.40;;
42226;SDS011;27892;52.378;13.122;2022-08-01T08:04:40;4.40;;;4.00;;
42226;SDS011;27892;52.378;13.122;2022-08-01T08:07:06;3.65;;;3.35;;
42226;SDS011;27892;52.378;13.122;2022-08-01T08:09:32;4.40;;;3.58;;
42226;SDS011;27892;52.378;13.122;2022-08-01T08:11:58;3.45;;;3.25;;
42226;SDS011;27892;52.378;13.122;2022-08-01T08:14:23;3.13;;;2.92;;
42226;SDS011;27892;52.378;13.122;2022-08-01T08:16:49;3.60;;;3.30;;
42226;SDS011;27892;52.378;13.122;2022-08-01T08:19:15;3.50;;;3.20;;
42226;SDS011;27892;52.378;13.122;2022-08-01T08:21:41;3.20;;;3.00;;
42226;SDS011;27892;52.378;13.122;2022-08-01T08:24:07;2.95;;;2.75;;
42226;SDS011;27892;52.378;13.122;2022-08-01T08:26:47;2.83;;;2.63;;
42226;SDS011;27892;52.378;13.122;2022-08-01T08:29:14;2.65;;;2.30;;
42226;SDS011;27892;52.378;13.122;2022-08-01T08:31:39;2.15;;;2.00;;
42226;SDS011;27892;52.378;13.122;2022-08-01T08:34:06;1.90;;;1.80;;
42226;SDS011;27892;52.378;13.122;2022-08-01T08:36:32;2.10;;;2.00;;
42226;SDS011;27892;52.378;13.122;2022-08-01T08:38:58;1.98;;;1.88;;
42226;SDS011;27892;52.378;13.122;2022-08-01T08:41:25;1.90;;;1.80;;
42226;SDS011;27892;52.378;13.122;2022-08-01T08:43:51;2.00;;;1.90;;
42226;SDS011;27892;52.378;13.122;2022-08-01T08:46:18;2.00;;;1.90;;
42226;SDS011;27892;52.378;13.122;2022-08-01T08:48:44;2.00;;;1.90;;
42226;SDS011;27892;52.378;13.122;2022-08-01T08:51:11;1.65;;;1.55;;
42226;SDS011;27892;52.378;13.122;2022-08-01T08:53:41;1.90;;;1.70;;
42226;SDS011;27892;52.378;13.122;2022-08-01T08:56:09;1.92;;;1.83;;
42226;SDS011;27892;52.378;13.122;2022-08-01T08:58:38;2.15;;;1.95;;
42226;SDS011;27892;52.378;13.122;2022-08-01T09:01:05;6.97;;;5.50;;
42226;SDS011;27892;52.378;13.122;2022-08-01T09:03:33;4.47;;;3.25;;
42226;SDS011;27892;52.378;13.122;2022-08-01T09:05:59;2.55;;;2.28;;
42226;SDS011;27892;52.378;13.122;2022-08-01T09:08:25;2.00;;;1.90;;
42226;SDS011;27892;52.378;13.122;2022-08-01T09:10:51;1.80;;;1.70;;
42226;SDS011;27892;52.378;13.122;2022-08-01T09:13:16;2.00;;;1.90;;
42226;SDS011;27892;52.378;13.122;2022-08-01T09:15:43;1.80;;;1.70;;
42226;SDS011;27892;52.378;13.122;2022-08-01T09:23:35;2.55;;;1.67;;
42226;SDS011;27892;52.378;13.122;2022-08-01T09:26:07;1.70;;;1.60;;
42226;SDS011;27892;52.378;13.122;2022-08-01T09:28:40;1.40;;;1.40;;
42226;SDS011;27892;52.378;13.122;2022-08-01T09:31:07;2.97;;;1.60;;
42226;SDS011;27892;52.378;13.122;2022-08-01T09:33:47;1.50;;;1.33;;
42226;SDS011;27892;52.378;13.122;2022-08-01T09:36:19;1.27;;;1.27;;
42226;SDS011;27892;52.378;13.122;2022-08-01T09:38:45;1.20;;;1.20;;
42226;SDS011;27892;52.378;13.122;2022-08-01T09:41:11;1.40;;;1.30;;
42226;SDS011;27892;52.378;13.122;2022-08-01T09:43:37;1.20;;;1.20;;
42226;SDS011;27892;52.378;13.122;2022-08-01T09:46:10;1.48;;;1.20;;
42226;SDS011;27892;52.378;13.122;2022-08-01T09:48:39;1.08;;;1.08;;
42226;SDS011;27892;52.378;13.122;2022-08-01T09:51:34;1.40;;;1.30;;
42226;SDS011;27892;52.378;13.122;2022-08-01T09:54:02;1.33;;;1.10;;
42226;SDS011;27892;52.378;13.122;2022-08-01T09:56:36;1.30;;;1.20;;
42226;SDS011;27892;52.378;13.122;2022-08-01T09:59:02;1.30;;;1.23;;
42226;SDS011;27892;52.378;13.122;2022-08-01T10:01:29;2.20;;;1.00;;
42226;SDS011;27892;52.378;13.122;2022-08-01T10:04:12;0.90;;;0.90;;
42226;SDS011;27892;52.378;13.122;2022-08-01T10:06:39;1.15;;;1.10;;
42226;SDS011;27892;52.378;13.122;2022-08-01T10:09:07;1.00;;;1.00;;
42226;SDS011;27892;52.378;13.122;2022-08-01T10:11:34;1.10;;;1.10;;
42226;SDS011;27892;52.378;13.122;2022-08-01T10:14:04;1.38;;;1.10;;
42226;SDS011;27892;52.378;13.122;2022-08-01T10:16:30;1.15;;;1.15;;
42226;SDS011;27892;52.378;13.122;2022-08-01T10:18:59;0.90;;;0.90;;
42226;SDS011;27892;52.378;13.122;2022-08-01T10:21:26;1.20;;;1.20;;
42226;SDS011;27892;52.378;13.122;2022-08-01T10:23:53;1.10;;;1.10;;
42226;SDS011;27892;52.378;13.122;2022-08-01T10:26:21;1.67;;;1.63;;
42226;SDS011;27892;52.378;13.122;2022-08-01T10:28:49;1.60;;;1.50;;
42226;SDS011;27892;52.378;13.122;2022-08-01T10:31:16;1.60;;;1.50;;
42226;SDS011;27892;52.378;13.122;2022-08-01T10:33:44;1.65;;;1.55;;
42226;SDS011;27892;52.378;13.122;2022-08-01T10:36:09;1.20;;;1.20;;
42226;SDS011;27892;52.378;13.122;2022-08-01T10:38:36;1.88;;;1.50;;
42226;SDS011;27892;52.378;13.122;2022-08-01T10:41:02;1.92;;;1.50;;
42226;SDS011;27892;52.378;13.122;2022-08-01T10:43:29;1.30;;;1.30;;
42226;SDS011;27892;52.378;13.122;2022-08-01T10:45:55;1.17;;;1.17;;
42226;SDS011;27892;52.378;13.122;2022-08-01T10:51:05;1.63;;;1.52;;
42226;SDS011;27892;52.378;13.122;2022-08-01T10:53:31;1.40;;;1.30;;
42226;SDS011;27892;52.378;13.122;2022-08-01T10:56:04;1.33;;;1.33;;
42226;SDS011;27892;52.378;13.122;2022-08-01T10:58:36;1.30;;;1.20;;
42226;SDS011;27892;52.378;13.122;2022-08-01T11:01:13;1.20;;;1.20;;
42226;SDS011;27892;52.378;13.122;2022-08-01T11:09:00;1.58;;;1.17;;
42226;SDS011;27892;52.378;13.122;2022-08-01T11:11:29;1.40;;;1.30;;
42226;SDS011;27892;52.378;13.122;2022-08-01T11:16:37;1.20;;;1.10;;
42226;SDS011;27892;52.378;13.122;2022-08-01T11:19:04;1.60;;;1.50;;
42226;SDS011;27892;52.378;13.122;2022-08-01T11:27:15;1.70;;;1.60;;
42226;SDS011;27892;52.378;13.122;2022-08-01T11:32:47;1.40;;;1.40;;
42226;SDS011;27892;52.378;13.122;2022-08-01T11:35:19;1.30;;;1.30;;
42226;SDS011;27892;52.378;13.122;2022-08-01T11:37:46;1.15;;;1.13;;
42226;SDS011;27892;52.378;13.122;2022-08-01T11:40:20;1.30;;;1.30;;
42226;SDS011;27892;52.378;13.122;2022-08-01T11:43:15;1.35;;;1.25;;
42226;SDS011;27892;52.378;13.122;2022-08-01T11:45:49;1.45;;;1.27;;
42226;SDS011;27892;52.378;13.122;2022-08-01T11:48:22;1.20;;;1.20;;
42226;SDS011;27892;52.378;13.122;2022-08-01T11:50:49;1.10;;;1.10;;
42226;SDS011;27892;52.378;13.122;2022-08-01T11:53:16;1.40;;;1.30;;
42226;SDS011;27892;52.378;13.122;2022-08-01T11:55:48;1.10;;;1.10;;
42226;SDS011;27892;52.378;13.122;2022-08-01T11:58:21;1.20;;;1.20;;
42226;SDS011;27892;52.378;13.122;2022-08-01T12:00:52;1.25;;;1.20;;
42226;SDS011;27892;52.378;13.122;2022-08-01T12:03:25;1.25;;;1.25;;
42226;SDS011;27892;52.378;13.122;2022-08-01T12:05:53;1.17;;;1.17;;
42226;SDS011;27892;52.378;13.122;2022-08-01T12:08:31;2.25;;;1.33;;
42226;SDS011;27892;52.378;13.122;2022-08-01T12:10:59;1.38;;;1.38;;
42226;SDS011;27892;52.378;13.122;2022-08-01T12:13:26;1.40;;;1.30;;
42226;SDS011;27892;52.378;13.122;2022-08-01T12:15:51;1.27;;;1.27;;
42226;SDS011;27892;52.378;13.122;2022-08-01T12:18:17;1.35;;;1.35;;
42226;SDS011;27892;52.378;13.122;2022-08-01T12:20:44;1.30;;;1.30;;
42226;SDS011;27892;52.378;13.122;2022-08-01T12:23:11;1.20;;;1.20;;
42226;SDS011;27892;52.378;13.122;2022-08-01T12:25:38;1.17;;;1.17;;
42226;SDS011;27892;52.378;13.122;2022-08-01T12:28:05;1.65;;;1.10;;
42226;SDS011;27892;52.378;13.122;2022-08-01T12:30:36;1.27;;;1.20;;
42226;SDS011;27892;52.378;13.122;2022-08-01T12:33:03;1.10;;;1.10;;
42226;SDS011;27892;52.378;13.122;2022-08-01T12:35:30;1.45;;;1.35;;
42226;SDS011;27892;52.378;13.122;2022-08-01T12:38:04;2.47;;;1.10;;
42226;SDS011;27892;52.378;13.122;2022-08-01T12:40:35;1.13;;;1.13;;
42226;SDS011;27892;52.378;13.122;2022-08-01T12:43:06;1.35;;;1.25;;
42226;SDS011;27892;52.378;13.122;2022-08-01T12:45:37;1.10;;;1.10;;
42226;SDS011;27892;52.378;13.122;2022-08-01T12:48:11;1.00;;;1.00;;
42226;SDS011;27892;52.378;13.122;2022-08-01T12:50:38;1.05;;;1.00;;
42226;SDS011;27892;52.378;13.122;2022-08-01T12:53:09;1.40;;;1.40;;
42226;SDS011;27892;52.378;13.122;2022-08-01T12:55:45;1.00;;;1.00;;
42226;SDS011;27892;52.378;13.122;2022-08-01T12:58:12;1.30;;;1.20;;
42226;SDS011;27892;52.378;13.122;2022-08-01T13:00:40;1.20;;;1.20;;
42226;SDS011;27892;52.378;13.122;2022-08-01T13:03:09;1.40;;;1.20;;
42226;SDS011;27892;52.378;13.122;2022-08-01T13:05:47;1.40;;;1.30;;
42226;SDS011;27892;52.378;13.122;2022-08-01T13:08:17;1.10;;;1.10;;
42226;SDS011;27892;52.378;13.122;2022-08-01T13:10:45;2.42;;;1.40;;
42226;SDS011;27892;52.378;13.122;2022-08-01T13:13:12;1.00;;;1.00;;
42226;SDS011;27892;52.378;13.122;2022-08-01T13:15:39;1.33;;;1.23;;
42226;SDS011;27892;52.378;13.122;2022-08-01T13:20:52;1.00;;;1.00;;
42226;SDS011;27892;52.378;13.122;2022-08-01T13:23:31;1.95;;;1.85;;
42226;SDS011;27892;52.378;13.122;2022-08-01T13:25:57;1.77;;;1.67;;
42226;SDS011;27892;52.378;13.122;2022-08-01T13:28:23;2.67;;;2.47;;
42226;SDS011;27892;52.378;13.122;2022-08-01T13:30:51;1.60;;;1.50;;
42226;SDS011;27892;52.378;13.122;2022-08-01T13:33:22;1.75;;;1.30;;
42226;SDS011;27892;52.378;13.122;2022-08-01T13:35:52;1.20;;;1.20;;
42226;SDS011;27892;52.378;13.122;2022-08-01T13:38:19;1.20;;;1.20;;
42226;SDS011;27892;52.378;13.122;2022-08-01T13:41:05;1.52;;;1.00;;
42226;SDS011;27892;52.378;13.122;2022-08-01T13:43:31;1.35;;;1.25;;
42226;SDS011;27892;52.378;13.122;2022-08-01T13:45:57;1.38;;;1.27;;
42226;SDS011;27892;52.378;13.122;2022-08-01T13:48:22;1.50;;;1.00;;
42226;SDS011;27892;52.378;13.122;2022-08-01T13:50:48;1.38;;;1.20;;
42226;SDS011;27892;52.378;13.122;2022-08-01T13:53:13;0.98;;;0.93;;
42226;SDS011;27892;52.378;13.122;2022-08-01T13:55:39;0.95;;;0.95;;
42226;SDS011;27892;52.378;13.122;2022-08-01T13:58:05;1.13;;;1.02;;
42226;SDS011;27892;52.378;13.122;2022-08-01T14:00:31;1.00;;;1.00;;
42226;SDS011;27892;52.378;13.122;2022-08-01T14:02:57;0.95;;;0.95;;
42226;SDS011;27892;52.378;13.122;2022-08-01T14:05:22;0.90;;;0.90;;
42226;SDS011;27892;52.378;13.122;2022-08-01T14:07:48;1.00;;;1.00;;
42226;SDS011;27892;52.378;13.122;2022-08-01T14:10:13;1.02;;;0.98;;
42226;SDS011;27892;52.378;13.122;2022-08-01T14:12:39;0.90;;;0.90;;
42226;SDS011;27892;52.378;13.122;2022-08-01T14:15:05;0.77;;;0.60;;
42226;SDS011;27892;52.378;13.122;2022-08-01T14:17:32;1.05;;;1.05;;
42226;SDS011;27892;52.378;13.122;2022-08-01T14:19:57;0.90;;;0.90;;
42226;SDS011;27892;52.378;13.122;2022-08-01T14:22:24;0.80;;;0.80;;
42226;SDS011;27892;52.378;13.122;2022-08-01T14:24:49;0.80;;;0.80;;
42226;SDS011;27892;52.378;13.122;2022-08-01T14:27:15;0.80;;;0.80;;
42226;SDS011;27892;52.378;13.122;2022-08-01T14:29:41;0.70;;;0.70;;
42226;SDS011;27892;52.378;13.122;2022-08-01T14:32:06;0.75;;;0.70;;
42226;SDS011;27892;52.378;13.122;2022-08-01T14:34:32;0.70;;;0.70;;
42226;SDS011;27892;52.378;13.122;2022-08-01T14:36:57;0.70;;;0.70;;
42226;SDS011;27892;52.378;13.122;2022-08-01T14:39:23;0.70;;;0.70;;
42226;SDS011;27892;52.378;13.122;2022-08-01T14:41:49;1.13;;;1.10;;
42226;SDS011;27892;52.378;13.122;2022-08-01T14:44:14;1.98;;;1.80;;
42226;SDS011;27892;52.378;13.122;2022-08-01T14:46:40;1.10;;;1.10;;
42226;SDS011;27892;52.378;13.122;2022-08-01T14:49:06;1.98;;;0.85;;
42226;SDS011;27892;52.378;13.122;2022-08-01T14:51:32;1.00;;;1.00;;
42226;SDS011;27892;52.378;13.122;2022-08-01T14:53:59;1.27;;;1.08;;
42226;SDS011;27892;52.378;13.122;2022-08-01T14:56:24;0.90;;;0.90;;
42226;SDS011;27892;52.378;13.122;2022-08-01T14:58:50;0.90;;;0.90;;
42226;SDS011;27892;52.378;13.122;2022-08-01T15:01:16;1.10;;;1.10;;
42226;SDS011;27892;52.378;13.122;2022-08-01T15:03:42;1.30;;;1.20;;
42226;SDS011;27892;52.378;13.122;2022-08-01T15:06:08;1.90;;;1.23;;
42226;SDS011;27892;52.378;13.122;2022-08-01T15:08:36;1.00;;;1.00;;
42226;SDS011;27892;52.378;13.122;2022-08-01T15:11:02;0.70;;;0.70;;
42226;SDS011;27892;52.378;13.122;2022-08-01T15:13:27;0.93;;;0.82;;
42226;SDS011;27892;52.378;13.122;2022-08-01T15:15:53;0.90;;;0.85;;
42226;SDS011;27892;52.378;13.122;2022-08-01T15:18:18;0.80;;;0.80;;